createdAt,value
2023-03-10T00:05:50.656Z,100
2023-03-10T00:11:50.503Z,100
2023-03-10T00:17:50.508Z,100
2023-03-10T00:23:50.615Z,100
2023-03-10T00:29:50.562Z,100
2023-03-10T00:35:50.542Z,100
2023-03-10T00:41:50.532Z,100
2023-03-10T00:47:50.521Z,100
2023-03-10T00:53:50.529Z,100
2023-03-10T00:59:50.939Z,100
2023-03-10T01:05:50.532Z,100
2023-03-10T01:11:50.515Z,100
2023-03-10T01:17:50.541Z,100
2023-03-10T01:23:50.531Z,100
2023-03-10T01:29:50.540Z,100
2023-03-10T01:35:50.575Z,100
2023-03-10T01:41:50.514Z,100
2023-03-10T01:47:50.524Z,100
2023-03-10T01:53:50.528Z,100
2023-03-10T01:59:50.506Z,100
2023-03-10T02:05:50.545Z,100
2023-03-10T02:11:50.618Z,100
2023-03-10T02:17:50.561Z,100
2023-03-10T02:24:00.942Z,100
2023-03-10T02:29:58.908Z,100
2023-03-10T02:35:50.637Z,100
2023-03-10T02:41:50.696Z,100
2023-03-10T02:47:50.532Z,100
2023-03-10T02:54:00.792Z,100
2023-03-10T02:59:50.546Z,100
2023-03-10T03:05:50.552Z,100
2023-03-10T03:11:50.522Z,100
2023-03-10T03:17:50.574Z,100
2023-03-10T03:23:50.544Z,100
2023-03-10T03:29:50.504Z,100
2023-03-10T03:35:50.544Z,100
2023-03-10T03:41:50.517Z,100
2023-03-10T03:47:50.521Z,100
2023-03-10T03:53:50.524Z,100
2023-03-10T03:59:50.540Z,100
2023-03-10T04:05:50.516Z,100
2023-03-10T04:11:50.512Z,100
2023-03-10T04:17:50.629Z,100
2023-03-10T04:23:50.522Z,100
2023-03-10T04:29:50.523Z,100
2023-03-10T04:35:50.542Z,100
2023-03-10T04:41:50.516Z,100
2023-03-10T04:47:50.584Z,100
2023-03-10T04:53:50.532Z,100
2023-03-10T04:59:50.598Z,100
2023-03-10T05:05:50.511Z,100
2023-03-10T05:11:50.541Z,100
2023-03-10T05:17:50.516Z,100
2023-03-10T05:23:50.511Z,100
2023-03-10T05:29:50.553Z,100
2023-03-10T05:35:50.572Z,100
2023-03-10T05:41:50.509Z,100
2023-03-10T05:47:50.528Z,100
2023-03-10T05:53:50.561Z,100
2023-03-10T05:59:55.939Z,100
2023-03-10T06:05:50.530Z,100
2023-03-10T06:11:50.583Z,100
2023-03-10T06:17:50.577Z,100
2023-03-10T06:23:50.537Z,100
2023-03-10T06:29:50.508Z,100
2023-03-10T06:35:50.578Z,100
2023-03-10T06:41:50.558Z,100
2023-03-10T06:47:50.502Z,100
2023-03-10T06:53:50.516Z,100
2023-03-10T06:59:54.711Z,100
2023-03-10T07:05:50.508Z,100
2023-03-10T07:11:50.701Z,100
2023-03-10T07:17:50.524Z,100
2023-03-10T07:23:50.501Z,100
2023-03-10T07:29:50.495Z,100
2023-03-10T07:35:50.627Z,100
2023-03-10T07:41:50.518Z,100
2023-03-10T07:47:50.515Z,100
2023-03-10T07:53:50.538Z,100
2023-03-10T07:59:50.491Z,100
2023-03-10T08:05:50.541Z,100
2023-03-10T08:11:50.517Z,100
2023-03-10T08:17:50.523Z,100
2023-03-10T08:23:50.522Z,100
2023-03-10T08:29:50.514Z,100
2023-03-10T08:35:50.532Z,100
2023-03-10T08:41:50.522Z,100
2023-03-10T08:47:50.526Z,100
2023-03-10T08:53:50.508Z,100
2023-03-10T08:59:50.497Z,100
2023-03-10T09:05:50.558Z,100
2023-03-10T09:11:50.515Z,100
2023-03-10T09:17:50.497Z,100
2023-03-10T09:23:50.601Z,100
2023-03-10T09:29:50.700Z,100
2023-03-10T09:36:05.864Z,100
2023-03-10T09:42:00.818Z,100
2023-03-10T09:47:50.529Z,97.1
2023-03-10T09:53:50.512Z,93.6
2023-03-10T09:59:50.542Z,89.7
2023-03-10T10:05:50.518Z,68.7
2023-03-10T10:11:50.526Z,75
2023-03-10T10:18:12.182Z,85.5
2023-03-10T10:23:50.517Z,89.7
2023-03-10T10:29:50.522Z,82.2
2023-03-10T10:35:50.595Z,61.6
2023-03-10T10:41:50.971Z,58.7
2023-03-10T10:47:50.560Z,65.7
2023-03-10T10:53:50.547Z,68.8
2023-03-10T10:59:50.506Z,71.2
2023-03-10T11:05:50.540Z,71.7
2023-03-10T11:11:50.550Z,76.1
2023-03-10T11:17:50.511Z,79
2023-03-10T11:23:50.523Z,81.9
2023-03-10T11:29:50.634Z,81.2
2023-03-10T11:35:50.546Z,83.5
2023-03-10T11:41:50.522Z,84.5
2023-03-10T11:47:50.539Z,91.5
2023-03-10T11:53:50.549Z,97.2
2023-03-10T11:59:50.530Z,100
2023-03-10T12:05:50.668Z,100
2023-03-10T12:11:50.524Z,100
2023-03-10T12:17:50.519Z,100
2023-03-10T12:23:50.549Z,100
2023-03-10T12:29:50.504Z,100
2023-03-10T12:35:50.578Z,100
2023-03-10T12:41:50.538Z,100
2023-03-10T12:47:50.501Z,100
2023-03-10T12:53:50.514Z,100
2023-03-10T12:59:50.525Z,100
2023-03-10T13:05:50.507Z,100
2023-03-10T13:11:50.508Z,100
2023-03-10T13:17:50.578Z,100
2023-03-10T13:23:50.514Z,100
2023-03-10T13:29:50.508Z,100
2023-03-10T13:35:50.590Z,100
2023-03-10T13:41:50.502Z,100
2023-03-10T13:47:50.531Z,100
2023-03-10T13:53:50.542Z,100
2023-03-10T13:59:50.520Z,100
2023-03-10T14:05:50.526Z,100
2023-03-10T14:11:50.979Z,100
2023-03-10T14:17:50.506Z,100
2023-03-10T14:23:50.500Z,100
2023-03-10T14:29:50.534Z,100
2023-03-10T14:35:50.600Z,100
2023-03-10T14:41:50.553Z,100
2023-03-10T14:47:50.718Z,100
2023-03-10T14:53:50.693Z,100
2023-03-10T14:59:50.493Z,100
2023-03-10T15:05:50.523Z,100
2023-03-10T15:11:50.516Z,100
2023-03-10T15:17:50.524Z,100
2023-03-10T15:23:50.525Z,100
2023-03-10T15:29:50.530Z,100
2023-03-10T15:35:50.557Z,100
2023-03-10T15:41:50.526Z,100
2023-03-10T15:47:50.576Z,100
2023-03-10T15:53:50.525Z,100
2023-03-10T15:59:50.538Z,100
2023-03-10T16:05:50.520Z,100
2023-03-10T16:11:50.503Z,100
2023-03-10T16:17:50.537Z,100
2023-03-10T16:23:50.495Z,100
2023-03-10T16:29:50.488Z,100
2023-03-10T16:35:50.690Z,100
2023-03-10T16:41:50.501Z,100
2023-03-10T16:47:50.507Z,100
2023-03-10T16:53:50.510Z,100
2023-03-10T16:59:50.494Z,100
2023-03-10T17:05:50.497Z,100
2023-03-10T17:11:50.505Z,100
2023-03-10T17:17:50.487Z,100
2023-03-10T17:23:50.514Z,100
2023-03-10T17:29:50.507Z,100
2023-03-10T17:35:50.528Z,100
2023-03-10T17:41:50.474Z,100
2023-03-10T17:47:50.522Z,100
2023-03-10T17:53:50.472Z,100
2023-03-10T17:59:50.499Z,100
2023-03-10T18:05:50.510Z,100
2023-03-10T18:11:50.485Z,100
2023-03-10T18:17:50.482Z,100
2023-03-10T18:23:50.516Z,100
2023-03-10T18:29:50.473Z,100
2023-03-10T18:35:50.464Z,100
2023-03-10T18:41:50.504Z,100
2023-03-10T18:47:50.468Z,100
2023-03-10T18:53:50.479Z,100
2023-03-10T18:59:50.544Z,100
2023-03-10T19:05:50.481Z,100
2023-03-10T19:11:50.524Z,100
2023-03-10T19:17:50.491Z,100
2023-03-10T19:23:50.459Z,100
2023-03-10T19:29:50.456Z,100
2023-03-10T19:35:50.534Z,100
2023-03-10T19:41:50.450Z,100
2023-03-10T19:47:50.456Z,100
2023-03-10T19:53:50.463Z,100
2023-03-10T19:59:50.430Z,100
2023-03-10T20:05:50.448Z,100
2023-03-10T20:11:50.488Z,100
2023-03-10T20:17:50.449Z,100
2023-03-10T20:23:50.445Z,100
2023-03-10T20:29:50.457Z,100
2023-03-10T20:35:50.485Z,100
2023-03-10T20:41:50.444Z,100
2023-03-10T20:47:50.526Z,100
2023-03-10T20:53:50.514Z,100
2023-03-10T20:59:50.440Z,100
2023-03-10T21:05:50.459Z,100
2023-03-10T21:11:50.421Z,100
2023-03-10T21:17:50.413Z,100
2023-03-10T21:23:50.453Z,100
2023-03-10T21:29:50.426Z,100
2023-03-10T21:35:50.459Z,100
2023-03-10T21:41:50.458Z,100
2023-03-10T21:47:50.425Z,100
2023-03-10T21:53:50.422Z,100
2023-03-10T21:59:50.452Z,100
2023-03-10T22:05:50.469Z,100
2023-03-10T22:11:50.411Z,100
2023-03-10T22:17:50.466Z,100
2023-03-10T22:23:50.425Z,100
2023-03-10T22:29:50.403Z,100
2023-03-10T22:35:50.440Z,100
2023-03-10T22:41:50.404Z,100
2023-03-10T22:47:50.389Z,100
2023-03-10T22:53:50.417Z,100
2023-03-10T22:59:50.414Z,100
2023-03-10T23:05:50.391Z,100
2023-03-10T23:11:50.424Z,100
2023-03-10T23:17:50.392Z,100
2023-03-10T23:23:50.408Z,100
2023-03-10T23:29:50.408Z,100
2023-03-10T23:35:50.612Z,100
2023-03-10T23:41:50.409Z,100
2023-03-10T23:47:50.411Z,100
2023-03-10T23:53:50.391Z,100
2023-03-10T23:59:50.373Z,100
